createdAt,value
2018-04-12T00:01:41.711Z,6.20
2018-04-12T00:04:09.274Z,6.20
2018-04-12T00:06:37.576Z,6.40
2018-04-12T00:09:05.965Z,6.30
2018-04-12T00:11:33.519Z,6.30
2018-04-12T00:14:01.856Z,6.10
2018-04-12T00:16:29.396Z,6.10
2018-04-12T00:18:56.972Z,6.10
2018-04-12T00:21:24.515Z,6.10
2018-04-12T00:23:52.847Z,6.20
2018-04-12T00:26:20.390Z,6.20
2018-04-12T00:28:48.718Z,6.10
2018-04-12T00:31:16.595Z,6.10
2018-04-12T00:33:44.154Z,6.10
2018-04-12T00:36:11.703Z,6.00
2018-04-12T00:38:40.035Z,6.00
2018-04-12T00:41:07.583Z,6.00
2018-04-12T00:43:35.137Z,6.00
2018-04-12T00:46:03.451Z,6.00
2018-04-12T00:48:31.002Z,6.00
2018-04-12T00:50:58.552Z,6.00
2018-04-12T00:53:38.741Z,6.00
2018-04-12T00:56:06.285Z,6.00
2018-04-12T00:58:34.685Z,6.00
2018-04-12T01:01:02.992Z,6.20
2018-04-12T01:03:30.535Z,6.10
2018-04-12T01:05:58.102Z,6.20
2018-04-12T01:08:25.651Z,6.20
2018-04-12T01:10:53.219Z,6.20
2018-04-12T01:13:20.767Z,6.10
2018-04-12T01:15:48.330Z,6.20
2018-04-12T01:18:15.871Z,6.30
2018-04-12T01:20:43.437Z,6.40
2018-04-12T01:23:10.982Z,6.60
2018-04-12T01:25:38.546Z,6.70
2018-04-12T01:28:06.089Z,6.80
2018-04-12T01:30:33.683Z,7.00
2018-04-12T01:33:13.142Z,7.10
2018-04-12T01:35:40.707Z,7.30
2018-04-12T01:38:08.253Z,7.40
2018-04-12T01:40:35.814Z,7.50
2018-04-12T01:43:04.122Z,7.50
2018-04-12T01:45:31.687Z,7.50
2018-04-12T01:47:59.235Z,7.60
2018-04-12T01:50:27.566Z,7.70
2018-04-12T01:52:55.108Z,7.60
2018-04-12T01:55:22.675Z,7.70
2018-04-12T01:57:50.226Z,7.80
2018-04-12T02:00:17.790Z,7.90
2018-04-12T02:02:45.336Z,7.90
2018-04-12T02:05:12.910Z,8.00
2018-04-12T02:07:41.220Z,8.00
2018-04-12T02:10:08.804Z,8.00
2018-04-12T02:12:36.350Z,8.10
2018-04-12T02:15:03.919Z,8.10
2018-04-12T02:17:31.465Z,8.10
2018-04-12T02:19:59.039Z,8.10
2018-04-12T02:22:26.587Z,8.10
2018-04-12T02:24:54.136Z,8.10
2018-04-12T02:27:22.469Z,8.10
2018-04-12T02:29:50.017Z,8.10
2018-04-12T02:32:17.589Z,8.10
2018-04-12T02:34:45.139Z,8.10
2018-04-12T02:37:13.466Z,8.10
2018-04-12T02:39:41.015Z,8.10
2018-04-12T02:42:09.347Z,8.10
2018-04-12T02:44:36.893Z,8.10
2018-04-12T02:47:04.455Z,8.10
2018-04-12T02:49:31.996Z,8.10
2018-04-12T02:51:59.567Z,8.10
2018-04-12T02:54:27.116Z,8.10
2018-04-12T02:56:54.678Z,8.10
2018-04-12T02:59:22.242Z,8.10
2018-04-12T03:01:50.251Z,8.10
2018-04-12T03:04:17.958Z,8.10
2018-04-12T03:06:45.519Z,8.10
2018-04-12T03:09:13.075Z,8.10
2018-04-12T03:11:40.644Z,8.20
2018-04-12T03:14:08.192Z,8.10
2018-04-12T03:16:36.522Z,8.10
2018-04-12T03:19:04.062Z,8.20
2018-04-12T03:21:32.395Z,8.10
2018-04-12T03:23:59.943Z,8.10
2018-04-12T03:26:27.509Z,8.10
2018-04-12T03:28:55.058Z,8.10
2018-04-12T03:31:22.638Z,8.10
2018-04-12T03:33:50.947Z,8.10
2018-04-12T03:36:18.499Z,8.10
2018-04-12T03:38:46.063Z,8.10
2018-04-12T03:41:14.377Z,8.10
2018-04-12T03:43:41.940Z,8.10
2018-04-12T03:46:09.480Z,8.10
2018-04-12T03:48:37.105Z,8.10
2018-04-12T03:51:05.386Z,8.10
2018-04-12T03:53:32.950Z,8.10
2018-04-12T03:56:00.492Z,8.10
2018-04-12T03:58:28.826Z,8.00
2018-04-12T04:00:56.367Z,8.00
2018-04-12T04:03:24.706Z,8.00
2018-04-12T04:05:52.252Z,8.00
2018-04-12T04:08:19.815Z,8.00
2018-04-12T04:10:47.366Z,8.00
2018-04-12T04:13:15.702Z,8.00
2018-04-12T04:15:54.986Z,7.90
2018-04-12T04:18:34.390Z,8.00
2018-04-12T04:21:18.642Z,8.00
2018-04-12T04:23:46.199Z,8.00
2018-04-12T04:26:13.751Z,8.10
2018-04-12T04:28:42.079Z,8.10
2018-04-12T04:31:09.633Z,8.10
2018-04-12T04:33:37.203Z,8.10
2018-04-12T04:36:04.747Z,8.20
2018-04-12T04:38:33.106Z,8.20
2018-04-12T04:41:01.414Z,8.30
2018-04-12T04:43:28.965Z,8.30
2018-04-12T04:45:56.531Z,8.30
2018-04-12T04:48:24.078Z,8.40
2018-04-12T04:50:51.658Z,8.40
2018-04-12T04:53:19.202Z,8.50
2018-04-12T04:55:46.762Z,8.50
2018-04-12T04:58:15.072Z,8.70
2018-04-12T05:00:42.639Z,8.70
2018-04-12T05:03:10.184Z,8.80
2018-04-12T05:05:37.759Z,8.80
2018-04-12T05:08:05.311Z,8.90
2018-04-12T05:10:32.887Z,9.10
2018-04-12T05:13:00.431Z,9.30
2018-04-12T05:15:28.006Z,9.40
2018-04-12T05:17:56.330Z,9.70
2018-04-12T05:20:23.915Z,9.70
2018-04-12T05:22:52.224Z,10.10
2018-04-12T05:25:19.791Z,10.00
2018-04-12T05:27:47.399Z,10.20
2018-04-12T05:30:14.943Z,10.30
2018-04-12T05:32:42.493Z,10.40
2018-04-12T05:35:10.827Z,10.70
2018-04-12T05:37:39.146Z,10.80
2018-04-12T05:40:06.735Z,10.80
2018-04-12T05:42:35.050Z,10.90
2018-04-12T05:45:02.625Z,10.90
2018-04-12T05:47:30.174Z,11.10
2018-04-12T05:49:58.534Z,11.10
2018-04-12T05:52:26.084Z,11.10
2018-04-12T05:54:53.649Z,11.10
2018-04-12T05:57:21.214Z,11.20
2018-04-12T05:59:48.759Z,11.40
2018-04-12T06:02:17.094Z,11.60
2018-04-12T06:04:44.643Z,11.60
2018-04-12T06:07:12.215Z,11.60
2018-04-12T06:09:39.761Z,11.50
2018-04-12T06:12:08.100Z,11.60
2018-04-12T06:14:35.646Z,11.60
2018-04-12T06:17:03.215Z,11.60
2018-04-12T06:19:30.771Z,11.60
2018-04-12T06:21:58.347Z,11.70
2018-04-12T06:24:25.903Z,11.60
2018-04-12T06:26:54.239Z,11.70
2018-04-12T06:29:21.792Z,11.60
2018-04-12T06:31:49.355Z,11.70
2018-04-12T06:34:16.902Z,11.70
2018-04-12T06:36:45.239Z,11.80
2018-04-12T06:39:12.782Z,11.80
2018-04-12T06:41:40.347Z,11.90
2018-04-12T06:44:08.667Z,12.00
2018-04-12T06:46:36.240Z,12.00
2018-04-12T06:49:03.795Z,12.10
2018-04-12T06:51:31.367Z,12.10
2018-04-12T06:53:58.915Z,12.10
2018-04-12T06:56:27.256Z,12.10
2018-04-12T06:58:54.807Z,12.10
2018-04-12T07:01:22.391Z,12.30
2018-04-12T07:03:49.940Z,12.40
2018-04-12T07:06:17.486Z,12.50
2018-04-12T07:08:45.814Z,12.70
2018-04-12T07:11:13.367Z,12.70
2018-04-12T07:13:40.955Z,12.90
2018-04-12T07:16:08.507Z,12.90
2018-04-12T07:18:36.088Z,12.90
2018-04-12T07:21:03.659Z,12.90
2018-04-12T07:23:31.254Z,12.90
2018-04-12T07:25:58.799Z,12.90
2018-04-12T07:28:26.369Z,12.90
2018-04-12T07:30:53.916Z,12.90
2018-04-12T07:33:22.295Z,13.50
2018-04-12T07:35:49.843Z,13.40
2018-04-12T07:38:17.419Z,13.60
2018-04-12T07:40:44.984Z,13.70
2018-04-12T07:43:12.554Z,13.80
2018-04-12T07:45:40.103Z,13.90
2018-04-12T07:48:07.681Z,14.00
2018-04-12T07:50:35.230Z,14.00
2018-04-12T07:53:02.797Z,14.00
2018-04-12T07:55:31.118Z,14.30
2018-04-12T07:57:58.695Z,14.30
2018-04-12T08:00:26.244Z,14.60
2018-04-12T08:02:53.811Z,14.90
2018-04-12T08:05:21.360Z,14.90
2018-04-12T08:07:49.694Z,14.90
2018-04-12T08:10:17.247Z,14.90
2018-04-12T08:12:44.877Z,15.10
2018-04-12T08:15:12.423Z,15.20
2018-04-12T08:17:39.999Z,15.40
2018-04-12T08:20:07.567Z,15.50
2018-04-12T08:22:35.114Z,15.60
2018-04-12T08:25:02.691Z,15.70
2018-04-12T08:27:30.242Z,15.70
2018-04-12T08:29:57.810Z,15.80
2018-04-12T08:32:25.361Z,16.00
2018-04-12T08:34:53.695Z,16.50
2018-04-12T08:37:21.247Z,16.50
2018-04-12T08:39:48.814Z,16.60
2018-04-12T08:42:16.366Z,16.70
2018-04-12T08:44:44.698Z,16.80
2018-04-12T08:47:12.250Z,16.80
2018-04-12T08:49:39.832Z,16.40
2018-04-12T08:52:07.418Z,16.10
2018-04-12T08:54:34.989Z,15.80
2018-04-12T08:57:02.539Z,15.60
2018-04-12T08:59:30.114Z,15.80
2018-04-12T09:01:57.663Z,15.90
2018-04-12T09:04:26.000Z,16.30
2018-04-12T09:06:53.548Z,16.20
2018-04-12T09:09:21.115Z,16.30
2018-04-12T09:11:48.663Z,16.60
2018-04-12T09:14:16.994Z,16.50
2018-04-12T09:16:44.535Z,16.50
2018-04-12T09:19:12.879Z,16.30
2018-04-12T09:21:40.432Z,16.30
2018-04-12T09:24:07.995Z,16.40
2018-04-12T09:26:35.551Z,16.70
2018-04-12T09:29:03.120Z,17.10
2018-04-12T09:31:30.673Z,17.10
2018-04-12T09:33:58.983Z,16.80
2018-04-12T09:36:26.554Z,16.70
2018-04-12T09:38:54.122Z,16.60
2018-04-12T09:41:21.720Z,16.60
2018-04-12T09:43:49.304Z,16.50
2018-04-12T09:46:16.868Z,16.50
2018-04-12T09:48:44.415Z,16.60
2018-04-12T09:51:11.987Z,16.80
2018-04-12T09:53:39.534Z,17.30
2018-04-12T09:56:07.099Z,17.80
2018-04-12T09:58:34.649Z,17.90
2018-04-12T10:01:08.742Z,18.10
2018-04-12T10:03:36.295Z,18.10
2018-04-12T10:06:05.802Z,18.10
2018-04-12T10:08:34.121Z,18.00
2018-04-12T10:11:01.699Z,18.00
2018-04-12T10:13:29.279Z,18.10
2018-04-12T10:15:56.846Z,18.50
2018-04-12T10:18:24.389Z,18.90
2018-04-12T10:20:51.971Z,19.10
2018-04-12T10:23:19.557Z,19.00
2018-04-12T10:25:47.151Z,19.00
2018-04-12T10:28:14.698Z,18.80
2018-04-12T10:30:42.267Z,18.70
2018-04-12T10:33:09.810Z,18.80
2018-04-12T10:35:38.153Z,18.80
2018-04-12T10:38:05.702Z,18.70
2018-04-12T10:40:33.266Z,18.80
2018-04-12T10:43:00.819Z,18.90
2018-04-12T10:45:29.188Z,18.90
2018-04-12T10:47:56.734Z,18.90
2018-04-12T10:50:24.283Z,19.10
2018-04-12T10:52:51.849Z,19.30
2018-04-12T10:55:19.395Z,19.50
2018-04-12T10:57:46.981Z,19.60
2018-04-12T11:00:14.533Z,19.60
2018-04-12T11:02:42.867Z,19.40
2018-04-12T11:05:11.192Z,19.50
2018-04-12T11:07:38.763Z,19.40
2018-04-12T11:10:06.312Z,19.70
2018-04-12T11:12:34.648Z,20.30
2018-04-12T11:15:02.964Z,20.50
2018-04-12T11:17:30.526Z,20.50
2018-04-12T11:19:58.071Z,20.60
2018-04-12T11:22:26.407Z,20.20
2018-04-12T11:24:53.978Z,20.20
2018-04-12T11:27:21.550Z,19.90
2018-04-12T11:29:49.138Z,19.70
2018-04-12T11:32:16.699Z,19.60
2018-04-12T11:34:45.021Z,19.60
2018-04-12T11:37:13.367Z,19.50
2018-04-12T11:39:40.920Z,19.50
2018-04-12T11:42:08.494Z,19.50
2018-04-12T11:44:36.051Z,19.50
2018-04-12T11:47:04.382Z,19.50
2018-04-12T11:49:31.932Z,19.50
2018-04-12T11:51:59.510Z,19.40
2018-04-12T11:54:27.051Z,19.40
2018-04-12T11:56:55.390Z,19.60
2018-04-12T11:59:22.935Z,19.60
2018-04-12T12:01:50.484Z,19.80
2018-04-12T12:04:18.070Z,20.00
2018-04-12T12:06:45.627Z,20.10
2018-04-12T12:09:13.274Z,20.50
2018-04-12T12:11:40.823Z,21.10
2018-04-12T12:14:09.158Z,21.50
2018-04-12T12:16:37.471Z,21.70
2018-04-12T12:19:05.039Z,21.70
2018-04-12T12:21:32.582Z,21.80
2018-04-12T12:24:00.911Z,22.10
2018-04-12T12:26:28.446Z,22.10
2018-04-12T12:28:56.775Z,22.00
2018-04-12T12:31:24.327Z,22.00
2018-04-12T12:33:51.888Z,22.00
2018-04-12T12:36:20.201Z,22.20
2018-04-12T12:38:47.765Z,22.20
2018-04-12T12:41:15.318Z,22.20
2018-04-12T12:43:43.652Z,22.30
2018-04-12T12:46:11.208Z,22.20
2018-04-12T12:48:38.767Z,22.40
2018-04-12T12:51:06.316Z,22.50
2018-04-12T12:53:34.643Z,22.70
2018-04-12T12:56:02.215Z,22.60
2018-04-12T12:58:29.786Z,22.70
2018-04-12T13:00:57.331Z,22.60
2018-04-12T13:03:25.671Z,22.60
2018-04-12T13:05:53.234Z,22.60
2018-04-12T13:08:20.799Z,22.80
2018-04-12T13:10:48.344Z,22.80
2018-04-12T13:13:15.934Z,22.80
2018-04-12T13:15:43.475Z,22.80
2018-04-12T13:18:11.783Z,23.10
2018-04-12T13:20:39.351Z,23.10
2018-04-12T13:23:06.898Z,23.30
2018-04-12T13:25:35.248Z,23.30
2018-04-12T13:28:02.801Z,23.30
2018-04-12T13:30:30.367Z,23.10
2018-04-12T13:32:57.919Z,23.10
2018-04-12T13:35:26.246Z,23.40
2018-04-12T13:37:53.793Z,23.40
2018-04-12T13:40:21.362Z,23.30
2018-04-12T13:42:48.906Z,23.10
2018-04-12T13:45:17.238Z,22.70
2018-04-12T13:47:44.788Z,22.70
2018-04-12T13:50:12.357Z,22.70
2018-04-12T13:52:46.509Z,22.80
2018-04-12T13:55:14.107Z,22.80
2018-04-12T13:57:41.637Z,22.90
2018-04-12T14:00:09.210Z,22.80
2018-04-12T14:02:36.751Z,22.70
2018-04-12T14:05:05.086Z,22.50
2018-04-12T14:07:32.633Z,22.40
2018-04-12T14:10:00.203Z,22.50
2018-04-12T14:12:27.757Z,22.40
2018-04-12T14:14:56.091Z,22.10
2018-04-12T14:17:23.645Z,22.00
2018-04-12T14:19:51.212Z,22.00
2018-04-12T14:22:18.754Z,22.10
2018-04-12T14:24:46.323Z,22.30
2018-04-12T14:27:13.867Z,22.40
2018-04-12T14:29:41.452Z,22.50
2018-04-12T14:32:09.017Z,22.40
2018-04-12T14:34:36.564Z,22.50
2018-04-12T14:37:04.136Z,22.50
2018-04-12T14:39:31.677Z,22.40
2018-04-12T14:41:59.251Z,22.50
2018-04-12T14:44:26.807Z,22.60
2018-04-12T14:46:55.139Z,22.60
2018-04-12T14:49:22.684Z,22.60
2018-04-12T14:51:50.265Z,22.60
2018-04-12T14:54:19.227Z,22.70
2018-04-12T14:56:45.394Z,22.60
2018-04-12T14:59:12.939Z,22.60
2018-04-12T15:01:40.536Z,22.50
2018-04-12T15:04:08.090Z,22.60
2018-04-12T15:06:36.424Z,22.50
2018-04-12T15:09:03.983Z,22.50
2018-04-12T15:11:31.546Z,22.40
2018-04-12T15:13:59.093Z,22.20
2018-04-12T15:16:26.658Z,22.20
2018-04-12T15:18:54.258Z,22.30
2018-04-12T15:21:21.803Z,22.30
2018-04-12T15:23:49.346Z,22.20
2018-04-12T15:26:16.922Z,22.20
2018-04-12T15:28:44.481Z,22.10
2018-04-12T15:31:12.047Z,22.00
2018-04-12T15:33:39.595Z,21.90
2018-04-12T15:36:07.167Z,21.70
2018-04-12T15:38:34.715Z,21.50
2018-04-12T15:41:03.063Z,21.30
2018-04-12T15:43:30.610Z,21.30
2018-04-12T15:45:58.204Z,21.10
2018-04-12T15:48:25.754Z,21.00
2018-04-12T15:50:53.294Z,21.00
2018-04-12T15:53:21.660Z,21.00
2018-04-12T15:55:49.207Z,21.10
2018-04-12T15:58:16.772Z,21.00
2018-04-12T16:00:44.319Z,21.00
2018-04-12T16:03:11.887Z,20.80
2018-04-12T16:05:39.444Z,20.70
2018-04-12T16:08:07.778Z,20.40
2018-04-12T16:10:35.327Z,20.40
2018-04-12T16:13:02.895Z,20.30
2018-04-12T16:15:30.447Z,20.20
2018-04-12T16:17:58.778Z,20.10
2018-04-12T16:20:26.336Z,20.10
2018-04-12T16:22:53.903Z,20.00
2018-04-12T16:25:21.582Z,20.00
2018-04-12T16:27:49.155Z,19.90
2018-04-12T16:30:16.702Z,19.90
2018-04-12T16:32:45.039Z,19.80
2018-04-12T16:35:12.594Z,19.80
2018-04-12T16:37:40.182Z,19.70
2018-04-12T16:40:07.734Z,19.70
2018-04-12T16:42:35.287Z,19.60
2018-04-12T16:45:02.856Z,19.60
2018-04-12T16:47:30.402Z,19.60
2018-04-12T16:49:57.971Z,19.50
2018-04-12T16:52:25.515Z,19.50
2018-04-12T16:54:53.082Z,19.50
2018-04-12T16:57:20.688Z,19.40
2018-04-12T16:59:48.255Z,19.40
2018-04-12T17:02:15.807Z,19.30
2018-04-12T17:04:43.375Z,19.30
2018-04-12T17:07:10.931Z,19.20
2018-04-12T17:09:38.495Z,19.20
2018-04-12T17:12:06.047Z,19.10
2018-04-12T17:14:33.617Z,19.10
2018-04-12T17:17:01.171Z,19.00
2018-04-12T17:19:29.515Z,18.90
2018-04-12T17:21:57.830Z,18.90
2018-04-12T17:24:25.434Z,18.80
2018-04-12T17:26:53.756Z,18.70
2018-04-12T17:29:21.326Z,18.70
2018-04-12T17:31:48.870Z,18.70
2018-04-12T17:34:17.205Z,18.60
2018-04-12T17:36:44.750Z,18.60
2018-04-12T17:39:12.318Z,18.60
2018-04-12T17:41:39.862Z,18.50
2018-04-12T17:44:08.218Z,18.40
2018-04-12T17:46:35.767Z,18.40
2018-04-12T17:49:03.316Z,18.40
2018-04-12T17:51:30.882Z,18.30
2018-04-12T17:53:58.435Z,18.30
2018-04-12T17:56:26.766Z,18.20
2018-04-12T17:58:54.319Z,18.20
2018-04-12T18:01:21.884Z,18.10
2018-04-12T18:03:50.225Z,18.10
2018-04-12T18:06:17.850Z,18.10
2018-04-12T18:08:45.428Z,18.00
2018-04-12T18:11:13.004Z,18.00
2018-04-12T18:13:40.549Z,17.90
2018-04-12T18:16:08.886Z,17.90
2018-04-12T18:18:36.443Z,17.90
2018-04-12T18:21:04.010Z,17.90
2018-04-12T18:23:31.570Z,17.90
2018-04-12T18:25:59.139Z,17.80
2018-04-12T18:28:26.679Z,17.70
2018-04-12T18:30:54.258Z,17.70
2018-04-12T18:33:21.815Z,17.70
2018-04-12T18:35:49.388Z,17.70
2018-04-12T18:38:16.935Z,17.70
2018-04-12T18:40:44.499Z,17.60
2018-04-12T18:43:12.058Z,17.60
2018-04-12T18:45:39.625Z,17.50
2018-04-12T18:48:07.174Z,17.50
2018-04-12T18:50:35.506Z,17.50
2018-04-12T18:53:03.059Z,17.40
2018-04-12T18:55:30.678Z,17.40
2018-04-12T18:57:58.230Z,17.40
2018-04-12T19:00:25.784Z,17.40
2018-04-12T19:02:53.358Z,17.40
2018-04-12T19:05:20.912Z,17.40
2018-04-12T19:07:48.485Z,17.40
2018-04-12T19:10:16.039Z,17.40
2018-04-12T19:12:44.375Z,17.30
2018-04-12T19:15:11.929Z,17.30
2018-04-12T19:17:39.502Z,17.30
2018-04-12T19:20:07.049Z,17.30
2018-04-12T19:22:36.888Z,17.30
2018-04-12T19:25:09.075Z,17.20
2018-04-12T19:27:37.789Z,17.20
2018-04-12T19:30:06.165Z,17.20
2018-04-12T19:32:34.038Z,17.20
2018-04-12T19:35:01.854Z,17.20
2018-04-12T19:37:29.920Z,17.20
2018-04-12T19:39:57.698Z,17.10
2018-04-12T19:42:25.524Z,17.10
2018-04-12T19:44:53.339Z,17.10
2018-04-12T19:47:21.328Z,17.00
2018-04-12T19:49:49.221Z,17.00
2018-04-12T19:52:17.450Z,17.00
2018-04-12T19:54:45.335Z,17.00
2018-04-12T19:57:13.351Z,16.90
2018-04-12T19:59:41.067Z,16.90
2018-04-12T20:02:09.573Z,16.80
2018-04-12T20:04:37.996Z,16.80
2018-04-12T20:07:05.931Z,16.80
2018-04-12T20:09:33.779Z,16.80
2018-04-12T20:12:01.602Z,16.80
2018-04-12T20:14:29.296Z,16.80
2018-04-12T20:16:57.219Z,16.80
2018-04-12T20:19:25.605Z,16.80
2018-04-12T20:21:53.248Z,16.70
2018-04-12T20:24:21.038Z,16.80
2018-04-12T20:26:48.590Z,16.80
2018-04-12T20:29:16.956Z,16.70
2018-04-12T20:31:44.495Z,16.70
2018-04-12T20:34:12.059Z,16.70
2018-04-12T20:36:40.314Z,16.70
2018-04-12T20:39:07.889Z,16.60
2018-04-12T20:41:38.272Z,16.60
2018-04-12T20:44:05.847Z,16.50
2018-04-12T20:46:33.394Z,16.50
2018-04-12T20:49:00.966Z,16.50
2018-04-12T20:51:28.516Z,16.50
2018-04-12T20:53:56.088Z,16.60
2018-04-12T20:56:23.639Z,16.50
2018-04-12T20:58:51.975Z,16.50
2018-04-12T21:01:19.527Z,16.40
2018-04-12T21:03:47.095Z,16.40
2018-04-12T21:06:14.652Z,16.40
2018-04-12T21:08:42.982Z,16.40
2018-04-12T21:11:10.529Z,16.30
2018-04-12T21:13:38.094Z,16.30
2018-04-12T21:16:05.652Z,16.30
2018-04-12T21:18:33.966Z,16.20
2018-04-12T21:21:01.538Z,16.20
2018-04-12T21:23:29.085Z,16.10
2018-04-12T21:25:57.427Z,16.10
2018-04-12T21:28:24.990Z,16.10
2018-04-12T21:30:52.567Z,16.10
2018-04-12T21:33:20.120Z,16.00
2018-04-12T21:35:47.691Z,16.00
2018-04-12T21:38:15.243Z,15.90
2018-04-12T21:40:42.811Z,15.90
2018-04-12T21:43:11.134Z,15.90
2018-04-12T21:45:38.706Z,15.90
2018-04-12T21:48:06.260Z,15.90
2018-04-12T21:50:33.826Z,15.90
2018-04-12T21:53:01.379Z,15.90
2018-04-12T21:55:29.723Z,15.90
2018-04-12T21:57:57.275Z,15.90
2018-04-12T22:00:24.852Z,15.80
2018-04-12T22:02:52.629Z,15.80
2018-04-12T22:05:20.194Z,15.70
2018-04-12T22:07:47.798Z,15.70
2018-04-12T22:10:15.374Z,15.70
2018-04-12T22:12:42.922Z,15.70
2018-04-12T22:15:10.493Z,15.60
2018-04-12T22:17:38.039Z,15.60
2018-04-12T22:20:05.635Z,15.60
2018-04-12T22:22:33.192Z,15.60
2018-04-12T22:25:00.783Z,15.60
2018-04-12T22:27:28.331Z,15.60
2018-04-12T22:29:55.912Z,15.70
2018-04-12T22:32:23.479Z,15.70
2018-04-12T22:34:51.035Z,15.70
2018-04-12T22:37:18.607Z,15.70
2018-04-12T22:39:46.216Z,15.60
2018-04-12T22:42:13.782Z,15.60
2018-04-12T22:44:41.334Z,15.60
2018-04-12T22:47:08.904Z,15.60
2018-04-12T22:49:36.450Z,15.50
2018-04-12T22:52:04.799Z,15.40
2018-04-12T22:54:32.357Z,15.40
2018-04-12T22:56:59.931Z,15.40
2018-04-12T22:59:27.482Z,15.30
2018-04-12T23:01:55.047Z,15.30
2018-04-12T23:04:22.599Z,15.30
2018-04-12T23:06:50.940Z,15.20
2018-04-12T23:09:18.487Z,15.20
2018-04-12T23:11:46.061Z,15.10
2018-04-12T23:14:13.611Z,15.10
2018-04-12T23:16:41.959Z,15.10
2018-04-12T23:19:09.506Z,15.10
2018-04-12T23:21:37.079Z,15.10
2018-04-12T23:24:04.645Z,15.10
2018-04-12T23:26:32.228Z,15.10
2018-04-12T23:28:59.779Z,15.00
2018-04-12T23:31:27.353Z,15.00
2018-04-12T23:33:54.910Z,15.00
2018-04-12T23:36:22.479Z,15.00
2018-04-12T23:38:50.035Z,15.00
2018-04-12T23:41:18.353Z,14.90
2018-04-12T23:43:45.939Z,14.90
2018-04-12T23:46:13.486Z,14.90
2018-04-12T23:48:41.055Z,14.90
2018-04-12T23:51:08.606Z,14.90
2018-04-12T23:53:36.959Z,14.90
2018-04-12T23:56:04.503Z,14.80
2018-04-12T23:58:32.078Z,14.80
